sensor_id;sensor_type;location;lat;lon;timestamp;P1;durP1;ratioP1;P2;durP2;ratioP2
20711;SDS011;10517;50.742;4.224;2023-03-14T00:01:21;3.08;;;0.55;;
20711;SDS011;10517;50.742;4.224;2023-03-14T00:03:46;3.85;;;0.70;;
20711;SDS011;10517;50.742;4.224;2023-03-14T00:06:12;5.88;;;0.63;;
20711;SDS011;10517;50.742;4.224;2023-03-14T00:08:39;7.10;;;0.55;;
20711;SDS011;10517;50.742;4.224;2023-03-14T00:11:08;1.48;;;0.55;;
20711;SDS011;10517;50.742;4.224;2023-03-14T00:13:39;5.55;;;1.23;;
20711;SDS011;10517;50.742;4.224;2023-03-14T00:16:05;2.88;;;0.45;;
20711;SDS011;10517;50.742;4.224;2023-03-14T00:18:36;12.27;;;0.80;;
20711;SDS011;10517;50.742;4.224;2023-03-14T00:21:02;2.42;;;0.52;;
20711;SDS011;10517;50.742;4.224;2023-03-14T00:23:29;1.83;;;0.80;;
20711;SDS011;10517;50.742;4.224;2023-03-14T00:26:00;1.87;;;0.30;;
20711;SDS011;10517;50.742;4.224;2023-03-14T00:28:27;4.70;;;0.93;;
20711;SDS011;10517;50.742;4.224;2023-03-14T00:30:52;4.63;;;0.67;;
20711;SDS011;10517;50.742;4.224;2023-03-14T00:33:19;2.65;;;0.70;;
20711;SDS011;10517;50.742;4.224;2023-03-14T00:35:52;4.40;;;0.70;;
20711;SDS011;10517;50.742;4.224;2023-03-14T00:38:22;5.53;;;0.73;;
20711;SDS011;10517;50.742;4.224;2023-03-14T00:40:47;8.27;;;0.70;;
20711;SDS011;10517;50.742;4.224;2023-03-14T00:43:13;4.23;;;1.43;;
20711;SDS011;10517;50.742;4.224;2023-03-14T00:45:38;8.90;;;0.67;;
20711;SDS011;10517;50.742;4.224;2023-03-14T00:48:04;9.77;;;0.70;;
20711;SDS011;10517;50.742;4.224;2023-03-14T00:50:30;6.80;;;1.03;;
20711;SDS011;10517;50.742;4.224;2023-03-14T00:52:55;6.17;;;0.97;;
20711;SDS011;10517;50.742;4.224;2023-03-14T00:55:21;4.47;;;0.70;;
20711;SDS011;10517;50.742;4.224;2023-03-14T00:57:46;7.70;;;0.80;;
20711;SDS011;10517;50.742;4.224;2023-03-14T01:00:12;6.87;;;0.77;;
20711;SDS011;10517;50.742;4.224;2023-03-14T01:02:38;3.93;;;0.73;;
20711;SDS011;10517;50.742;4.224;2023-03-14T01:05:04;6.97;;;1.03;;
20711;SDS011;10517;50.742;4.224;2023-03-14T01:07:30;5.97;;;0.77;;
20711;SDS011;10517;50.742;4.224;2023-03-14T01:09:55;6.30;;;1.00;;
20711;SDS011;10517;50.742;4.224;2023-03-14T01:12:21;6.38;;;1.20;;
20711;SDS011;10517;50.742;4.224;2023-03-14T01:14:46;10.27;;;1.90;;
20711;SDS011;10517;50.742;4.224;2023-03-14T01:17:12;7.22;;;0.82;;
20711;SDS011;10517;50.742;4.224;2023-03-14T01:19:37;8.97;;;1.60;;
20711;SDS011;10517;50.742;4.224;2023-03-14T01:22:03;6.38;;;0.75;;
20711;SDS011;10517;50.742;4.224;2023-03-14T01:24:28;10.97;;;1.67;;
20711;SDS011;10517;50.742;4.224;2023-03-14T01:26:54;8.73;;;1.13;;
20711;SDS011;10517;50.742;4.224;2023-03-14T01:29:20;4.27;;;0.83;;
20711;SDS011;10517;50.742;4.224;2023-03-14T01:31:45;7.33;;;0.97;;
20711;SDS011;10517;50.742;4.224;2023-03-14T01:34:11;3.03;;;1.10;;
20711;SDS011;10517;50.742;4.224;2023-03-14T01:36:36;3.33;;;0.60;;
20711;SDS011;10517;50.742;4.224;2023-03-14T01:39:02;5.30;;;0.43;;
20711;SDS011;10517;50.742;4.224;2023-03-14T01:41:31;1.70;;;0.73;;
20711;SDS011;10517;50.742;4.224;2023-03-14T01:43:57;4.63;;;1.17;;
20711;SDS011;10517;50.742;4.224;2023-03-14T01:46:30;6.37;;;0.50;;
20711;SDS011;10517;50.742;4.224;2023-03-14T01:49:33;5.97;;;0.50;;
20711;SDS011;10517;50.742;4.224;2023-03-14T01:52:05;4.07;;;0.33;;
20711;SDS011;10517;50.742;4.224;2023-03-14T01:54:40;5.90;;;0.50;;
20711;SDS011;10517;50.742;4.224;2023-03-14T01:57:22;1.80;;;0.50;;
20711;SDS011;10517;50.742;4.224;2023-03-14T01:59:53;6.03;;;0.50;;
20711;SDS011;10517;50.742;4.224;2023-03-14T02:02:23;1.57;;;0.40;;
20711;SDS011;10517;50.742;4.224;2023-03-14T02:04:51;4.13;;;0.50;;
20711;SDS011;10517;50.742;4.224;2023-03-14T02:07:22;3.13;;;0.60;;
20711;SDS011;10517;50.742;4.224;2023-03-14T02:09:51;3.50;;;0.40;;
20711;SDS011;10517;50.742;4.224;2023-03-14T02:12:19;1.30;;;0.60;;
20711;SDS011;10517;50.742;4.224;2023-03-14T02:14:46;4.43;;;0.40;;
20711;SDS011;10517;50.742;4.224;2023-03-14T02:17:13;1.80;;;0.40;;
20711;SDS011;10517;50.742;4.224;2023-03-14T02:19:46;6.87;;;0.70;;
20711;SDS011;10517;50.742;4.224;2023-03-14T02:22:23;6.90;;;0.93;;
20711;SDS011;10517;50.742;4.224;2023-03-14T02:27:25;3.77;;;0.90;;
20711;SDS011;10517;50.742;4.224;2023-03-14T02:29:56;4.63;;;0.90;;
20711;SDS011;10517;50.742;4.224;2023-03-14T02:32:29;2.43;;;0.77;;
20711;SDS011;10517;50.742;4.224;2023-03-14T02:34:58;3.80;;;1.40;;
20711;SDS011;10517;50.742;4.224;2023-03-14T02:37:30;4.00;;;1.40;;
20711;SDS011;10517;50.742;4.224;2023-03-14T02:40:03;6.93;;;2.00;;
20711;SDS011;10517;50.742;4.224;2023-03-14T02:42:29;10.40;;;1.83;;
20711;SDS011;10517;50.742;4.224;2023-03-14T02:47:33;6.87;;;1.40;;
20711;SDS011;10517;50.742;4.224;2023-03-14T02:50:09;5.57;;;1.53;;
20711;SDS011;10517;50.742;4.224;2023-03-14T02:52:40;7.63;;;1.43;;
20711;SDS011;10517;50.742;4.224;2023-03-14T02:55:06;7.17;;;1.53;;
20711;SDS011;10517;50.742;4.224;2023-03-14T02:57:32;8.13;;;1.47;;
20711;SDS011;10517;50.742;4.224;2023-03-14T02:59:58;11.47;;;2.63;;
20711;SDS011;10517;50.742;4.224;2023-03-14T03:02:24;5.00;;;1.87;;
20711;SDS011;10517;50.742;4.224;2023-03-14T03:04:50;9.00;;;1.70;;
20711;SDS011;10517;50.742;4.224;2023-03-14T03:07:16;6.20;;;1.50;;
20711;SDS011;10517;50.742;4.224;2023-03-14T03:09:42;1.57;;;0.90;;
20711;SDS011;10517;50.742;4.224;2023-03-14T03:12:07;14.70;;;2.60;;
20711;SDS011;10517;50.742;4.224;2023-03-14T03:14:33;12.20;;;1.53;;
20711;SDS011;10517;50.742;4.224;2023-03-14T03:16:58;9.33;;;2.03;;
20711;SDS011;10517;50.742;4.224;2023-03-14T03:19:24;12.40;;;1.50;;
20711;SDS011;10517;50.742;4.224;2023-03-14T03:21:50;7.87;;;1.50;;
20711;SDS011;10517;50.742;4.224;2023-03-14T03:24:15;5.73;;;1.17;;
20711;SDS011;10517;50.742;4.224;2023-03-14T03:26:41;4.77;;;1.97;;
20711;SDS011;10517;50.742;4.224;2023-03-14T03:29:06;6.30;;;1.63;;
20711;SDS011;10517;50.742;4.224;2023-03-14T03:31:32;5.40;;;1.80;;
20711;SDS011;10517;50.742;4.224;2023-03-14T03:33:58;5.43;;;1.43;;
20711;SDS011;10517;50.742;4.224;2023-03-14T03:36:24;12.57;;;2.90;;
20711;SDS011;10517;50.742;4.224;2023-03-14T03:38:51;9.63;;;2.57;;
20711;SDS011;10517;50.742;4.224;2023-03-14T03:41:17;8.53;;;2.40;;
20711;SDS011;10517;50.742;4.224;2023-03-14T03:43:42;8.57;;;4.37;;
20711;SDS011;10517;50.742;4.224;2023-03-14T03:46:08;11.60;;;3.60;;
20711;SDS011;10517;50.742;4.224;2023-03-14T03:48:34;6.27;;;2.20;;
20711;SDS011;10517;50.742;4.224;2023-03-14T03:51:00;4.13;;;2.70;;
20711;SDS011;10517;50.742;4.224;2023-03-14T03:53:26;3.37;;;1.70;;
20711;SDS011;10517;50.742;4.224;2023-03-14T03:55:52;7.20;;;2.20;;
20711;SDS011;10517;50.742;4.224;2023-03-14T03:58:17;8.07;;;2.03;;
20711;SDS011;10517;50.742;4.224;2023-03-14T04:00:43;5.37;;;1.30;;
20711;SDS011;10517;50.742;4.224;2023-03-14T04:03:09;5.70;;;1.47;;
20711;SDS011;10517;50.742;4.224;2023-03-14T04:05:34;9.40;;;1.90;;
20711;SDS011;10517;50.742;4.224;2023-03-14T04:08:00;2.73;;;0.93;;
20711;SDS011;10517;50.742;4.224;2023-03-14T04:10:26;2.93;;;1.00;;
20711;SDS011;10517;50.742;4.224;2023-03-14T04:12:52;5.07;;;0.90;;
20711;SDS011;10517;50.742;4.224;2023-03-14T04:15:18;1.27;;;0.60;;
20711;SDS011;10517;50.742;4.224;2023-03-14T04:17:43;1.90;;;0.80;;
20711;SDS011;10517;50.742;4.224;2023-03-14T04:20:09;10.37;;;1.03;;
20711;SDS011;10517;50.742;4.224;2023-03-14T04:22:38;1.33;;;0.60;;
20711;SDS011;10517;50.742;4.224;2023-03-14T04:25:04;3.50;;;0.63;;
20711;SDS011;10517;50.742;4.224;2023-03-14T04:27:31;1.73;;;0.87;;
20711;SDS011;10517;50.742;4.224;2023-03-14T04:29:56;6.97;;;1.00;;
20711;SDS011;10517;50.742;4.224;2023-03-14T04:32:22;2.50;;;0.97;;
20711;SDS011;10517;50.742;4.224;2023-03-14T04:34:48;4.10;;;1.23;;
20711;SDS011;10517;50.742;4.224;2023-03-14T04:37:13;4.13;;;1.07;;
20711;SDS011;10517;50.742;4.224;2023-03-14T04:39:39;5.10;;;1.03;;
20711;SDS011;10517;50.742;4.224;2023-03-14T04:42:05;1.57;;;1.07;;
20711;SDS011;10517;50.742;4.224;2023-03-14T04:44:30;5.33;;;1.10;;
20711;SDS011;10517;50.742;4.224;2023-03-14T04:46:56;5.00;;;1.10;;
20711;SDS011;10517;50.742;4.224;2023-03-14T04:49:22;1.20;;;1.00;;
20711;SDS011;10517;50.742;4.224;2023-03-14T04:51:47;2.27;;;1.00;;
20711;SDS011;10517;50.742;4.224;2023-03-14T04:54:15;3.83;;;0.83;;
20711;SDS011;10517;50.742;4.224;2023-03-14T04:56:41;2.13;;;1.00;;
20711;SDS011;10517;50.742;4.224;2023-03-14T04:59:07;3.03;;;0.93;;
20711;SDS011;10517;50.742;4.224;2023-03-14T05:01:33;2.77;;;0.77;;
20711;SDS011;10517;50.742;4.224;2023-03-14T05:03:59;2.27;;;0.83;;
20711;SDS011;10517;50.742;4.224;2023-03-14T05:06:24;5.97;;;1.00;;
20711;SDS011;10517;50.742;4.224;2023-03-14T05:08:50;2.63;;;0.90;;
20711;SDS011;10517;50.742;4.224;2023-03-14T05:11:15;1.47;;;0.67;;
20711;SDS011;10517;50.742;4.224;2023-03-14T05:13:41;5.23;;;1.17;;
20711;SDS011;10517;50.742;4.224;2023-03-14T05:16:07;1.07;;;0.90;;
20711;SDS011;10517;50.742;4.224;2023-03-14T05:18:35;1.93;;;1.03;;
20711;SDS011;10517;50.742;4.224;2023-03-14T05:21:00;2.42;;;1.20;;
20711;SDS011;10517;50.742;4.224;2023-03-14T05:23:26;1.07;;;0.90;;
20711;SDS011;10517;50.742;4.224;2023-03-14T05:25:52;3.47;;;1.13;;
20711;SDS011;10517;50.742;4.224;2023-03-14T05:28:17;1.67;;;1.00;;
20711;SDS011;10517;50.742;4.224;2023-03-14T05:30:43;1.70;;;1.00;;
20711;SDS011;10517;50.742;4.224;2023-03-14T05:33:09;5.87;;;1.33;;
20711;SDS011;10517;50.742;4.224;2023-03-14T05:35:34;5.00;;;1.27;;
20711;SDS011;10517;50.742;4.224;2023-03-14T05:38:00;2.67;;;1.30;;
20711;SDS011;10517;50.742;4.224;2023-03-14T05:40:26;1.30;;;1.20;;
20711;SDS011;10517;50.742;4.224;2023-03-14T05:42:51;1.27;;;1.00;;
20711;SDS011;10517;50.742;4.224;2023-03-14T05:45:17;6.20;;;1.23;;
20711;SDS011;10517;50.742;4.224;2023-03-14T05:47:43;5.10;;;1.60;;
20711;SDS011;10517;50.742;4.224;2023-03-14T05:50:08;3.00;;;1.40;;
20711;SDS011;10517;50.742;4.224;2023-03-14T05:52:34;4.83;;;1.37;;
20711;SDS011;10517;50.742;4.224;2023-03-14T05:55:00;5.13;;;2.27;;
20711;SDS011;10517;50.742;4.224;2023-03-14T05:57:26;4.93;;;1.40;;
20711;SDS011;10517;50.742;4.224;2023-03-14T05:59:51;1.43;;;1.10;;
20711;SDS011;10517;50.742;4.224;2023-03-14T06:02:17;3.07;;;1.40;;
20711;SDS011;10517;50.742;4.224;2023-03-14T06:04:42;2.33;;;1.47;;
20711;SDS011;10517;50.742;4.224;2023-03-14T06:07:08;2.13;;;1.38;;
20711;SDS011;10517;50.742;4.224;2023-03-14T06:09:33;7.55;;;1.50;;
20711;SDS011;10517;50.742;4.224;2023-03-14T06:11:59;2.77;;;1.37;;
20711;SDS011;10517;50.742;4.224;2023-03-14T06:14:24;2.10;;;1.33;;
20711;SDS011;10517;50.742;4.224;2023-03-14T06:16:50;3.97;;;1.23;;
20711;SDS011;10517;50.742;4.224;2023-03-14T06:19:16;2.37;;;1.60;;
20711;SDS011;10517;50.742;4.224;2023-03-14T06:21:42;3.90;;;1.20;;
20711;SDS011;10517;50.742;4.224;2023-03-14T06:24:07;1.30;;;0.97;;
20711;SDS011;10517;50.742;4.224;2023-03-14T06:26:33;2.23;;;1.17;;
20711;SDS011;10517;50.742;4.224;2023-03-14T06:28:59;1.57;;;1.30;;
20711;SDS011;10517;50.742;4.224;2023-03-14T06:31:29;1.30;;;1.20;;
20711;SDS011;10517;50.742;4.224;2023-03-14T06:33:55;4.13;;;1.43;;
20711;SDS011;10517;50.742;4.224;2023-03-14T06:36:21;3.53;;;1.20;;
20711;SDS011;10517;50.742;4.224;2023-03-14T06:38:46;1.85;;;1.50;;
20711;SDS011;10517;50.742;4.224;2023-03-14T06:41:12;1.70;;;1.52;;
20711;SDS011;10517;50.742;4.224;2023-03-14T06:43:38;1.40;;;1.30;;
20711;SDS011;10517;50.742;4.224;2023-03-14T06:46:03;5.97;;;1.40;;
20711;SDS011;10517;50.742;4.224;2023-03-14T06:48:29;1.40;;;1.27;;
20711;SDS011;10517;50.742;4.224;2023-03-14T06:50:55;1.37;;;1.30;;
20711;SDS011;10517;50.742;4.224;2023-03-14T06:53:20;1.10;;;1.00;;
20711;SDS011;10517;50.742;4.224;2023-03-14T06:55:46;1.60;;;1.10;;
20711;SDS011;10517;50.742;4.224;2023-03-14T06:58:12;1.10;;;0.97;;
20711;SDS011;10517;50.742;4.224;2023-03-14T07:00:37;0.97;;;0.83;;
20711;SDS011;10517;50.742;4.224;2023-03-14T07:03:03;0.70;;;0.70;;
20711;SDS011;10517;50.742;4.224;2023-03-14T07:05:29;0.80;;;0.80;;
20711;SDS011;10517;50.742;4.224;2023-03-14T07:07:54;1.70;;;1.20;;
20711;SDS011;10517;50.742;4.224;2023-03-14T07:10:20;1.50;;;1.00;;
20711;SDS011;10517;50.742;4.224;2023-03-14T07:12:46;1.20;;;1.10;;
20711;SDS011;10517;50.742;4.224;2023-03-14T07:15:12;6.13;;;1.30;;
20711;SDS011;10517;50.742;4.224;2023-03-14T07:17:37;0.80;;;0.80;;
20711;SDS011;10517;50.742;4.224;2023-03-14T07:20:03;2.07;;;1.43;;
20711;SDS011;10517;50.742;4.224;2023-03-14T07:22:29;2.37;;;1.87;;
20711;SDS011;10517;50.742;4.224;2023-03-14T07:24:55;3.90;;;1.70;;
20711;SDS011;10517;50.742;4.224;2023-03-14T07:27:21;4.63;;;1.47;;
20711;SDS011;10517;50.742;4.224;2023-03-14T07:29:46;3.17;;;1.40;;
20711;SDS011;10517;50.742;4.224;2023-03-14T07:32:12;1.40;;;1.30;;
20711;SDS011;10517;50.742;4.224;2023-03-14T07:34:40;1.57;;;1.40;;
20711;SDS011;10517;50.742;4.224;2023-03-14T07:37:06;2.13;;;1.50;;
20711;SDS011;10517;50.742;4.224;2023-03-14T07:39:32;2.80;;;2.33;;
20711;SDS011;10517;50.742;4.224;2023-03-14T07:41:57;2.93;;;2.03;;
20711;SDS011;10517;50.742;4.224;2023-03-14T07:44:23;1.60;;;1.37;;
20711;SDS011;10517;50.742;4.224;2023-03-14T07:46:48;1.97;;;1.60;;
20711;SDS011;10517;50.742;4.224;2023-03-14T07:49:14;3.03;;;1.53;;
20711;SDS011;10517;50.742;4.224;2023-03-14T07:51:39;2.47;;;1.60;;
20711;SDS011;10517;50.742;4.224;2023-03-14T07:54:05;4.20;;;2.20;;
20711;SDS011;10517;50.742;4.224;2023-03-14T07:56:31;1.70;;;1.53;;
20711;SDS011;10517;50.742;4.224;2023-03-14T07:58:56;1.83;;;1.50;;
20711;SDS011;10517;50.742;4.224;2023-03-14T08:01:22;3.33;;;2.57;;
20711;SDS011;10517;50.742;4.224;2023-03-14T08:03:47;6.40;;;2.37;;
20711;SDS011;10517;50.742;4.224;2023-03-14T08:06:13;4.57;;;2.90;;
20711;SDS011;10517;50.742;4.224;2023-03-14T08:08:39;2.53;;;1.53;;
20711;SDS011;10517;50.742;4.224;2023-03-14T08:11:05;3.87;;;2.53;;
20711;SDS011;10517;50.742;4.224;2023-03-14T08:13:33;3.93;;;1.87;;
20711;SDS011;10517;50.742;4.224;2023-03-14T08:15:59;5.33;;;1.93;;
20711;SDS011;10517;50.742;4.224;2023-03-14T08:18:24;2.40;;;1.50;;
20711;SDS011;10517;50.742;4.224;2023-03-14T08:20:50;10.33;;;2.00;;
20711;SDS011;10517;50.742;4.224;2023-03-14T08:23:16;11.07;;;2.93;;
20711;SDS011;10517;50.742;4.224;2023-03-14T08:25:41;6.47;;;2.87;;
20711;SDS011;10517;50.742;4.224;2023-03-14T08:28:08;8.03;;;2.57;;
20711;SDS011;10517;50.742;4.224;2023-03-14T08:30:33;11.37;;;2.20;;
20711;SDS011;10517;50.742;4.224;2023-03-14T08:32:59;3.90;;;1.73;;
20711;SDS011;10517;50.742;4.224;2023-03-14T08:35:25;5.30;;;2.17;;
20711;SDS011;10517;50.742;4.224;2023-03-14T08:37:51;4.37;;;2.10;;
20711;SDS011;10517;50.742;4.224;2023-03-14T08:40:17;5.30;;;1.80;;
20711;SDS011;10517;50.742;4.224;2023-03-14T08:42:43;5.10;;;2.20;;
20711;SDS011;10517;50.742;4.224;2023-03-14T08:45:10;4.00;;;1.70;;
20711;SDS011;10517;50.742;4.224;2023-03-14T08:47:39;6.57;;;1.80;;
20711;SDS011;10517;50.742;4.224;2023-03-14T08:50:05;4.53;;;2.40;;
20711;SDS011;10517;50.742;4.224;2023-03-14T08:52:31;2.27;;;2.07;;
20711;SDS011;10517;50.742;4.224;2023-03-14T08:54:57;6.50;;;2.50;;
20711;SDS011;10517;50.742;4.224;2023-03-14T08:57:24;16.13;;;1.87;;
20711;SDS011;10517;50.742;4.224;2023-03-14T08:59:56;1.40;;;1.23;;
20711;SDS011;10517;50.742;4.224;2023-03-14T09:02:22;4.67;;;1.50;;
20711;SDS011;10517;50.742;4.224;2023-03-14T09:04:52;5.83;;;1.80;;
20711;SDS011;10517;50.742;4.224;2023-03-14T09:07:18;2.83;;;1.50;;
20711;SDS011;10517;50.742;4.224;2023-03-14T09:09:44;1.83;;;1.50;;
20711;SDS011;10517;50.742;4.224;2023-03-14T09:12:10;2.83;;;1.77;;
20711;SDS011;10517;50.742;4.224;2023-03-14T09:14:36;13.43;;;2.10;;
20711;SDS011;10517;50.742;4.224;2023-03-14T09:17:03;6.50;;;2.47;;
20711;SDS011;10517;50.742;4.224;2023-03-14T09:19:28;2.10;;;1.70;;
20711;SDS011;10517;50.742;4.224;2023-03-14T09:21:54;7.93;;;1.97;;
20711;SDS011;10517;50.742;4.224;2023-03-14T09:24:20;2.60;;;1.83;;
20711;SDS011;10517;50.742;4.224;2023-03-14T09:26:46;5.53;;;1.33;;
20711;SDS011;10517;50.742;4.224;2023-03-14T09:29:11;6.10;;;1.77;;
20711;SDS011;10517;50.742;4.224;2023-03-14T09:31:37;10.30;;;1.83;;
20711;SDS011;10517;50.742;4.224;2023-03-14T09:34:03;5.20;;;1.70;;
20711;SDS011;10517;50.742;4.224;2023-03-14T09:36:29;6.63;;;1.50;;
20711;SDS011;10517;50.742;4.224;2023-03-14T09:38:55;3.60;;;1.97;;
20711;SDS011;10517;50.742;4.224;2023-03-14T09:41:24;5.07;;;1.67;;
20711;SDS011;10517;50.742;4.224;2023-03-14T09:43:58;2.10;;;1.93;;
20711;SDS011;10517;50.742;4.224;2023-03-14T09:46:31;1.50;;;1.40;;
20711;SDS011;10517;50.742;4.224;2023-03-14T09:49:00;1.53;;;1.43;;
20711;SDS011;10517;50.742;4.224;2023-03-14T09:51:26;6.53;;;1.50;;
20711;SDS011;10517;50.742;4.224;2023-03-14T09:53:52;6.63;;;1.40;;
20711;SDS011;10517;50.742;4.224;2023-03-14T09:56:19;2.03;;;1.83;;
20711;SDS011;10517;50.742;4.224;2023-03-14T09:58:54;4.53;;;1.30;;
20711;SDS011;10517;50.742;4.224;2023-03-14T10:01:22;1.70;;;0.80;;
20711;SDS011;10517;50.742;4.224;2023-03-14T10:03:53;10.17;;;1.67;;
20711;SDS011;10517;50.742;4.224;2023-03-14T10:06:25;4.63;;;1.17;;
20711;SDS011;10517;50.742;4.224;2023-03-14T10:08:52;2.17;;;1.10;;
20711;SDS011;10517;50.742;4.224;2023-03-14T10:11:20;7.30;;;0.93;;
20711;SDS011;10517;50.742;4.224;2023-03-14T10:16:32;4.93;;;0.77;;
20711;SDS011;10517;50.742;4.224;2023-03-14T10:19:01;0.57;;;0.50;;
20711;SDS011;10517;50.742;4.224;2023-03-14T10:21:29;4.63;;;0.67;;
20711;SDS011;10517;50.742;4.224;2023-03-14T10:26:59;2.20;;;0.50;;
20711;SDS011;10517;50.742;4.224;2023-03-14T10:29:27;2.43;;;1.00;;
20711;SDS011;10517;50.742;4.224;2023-03-14T10:32:01;4.20;;;1.40;;
20711;SDS011;10517;50.742;4.224;2023-03-14T10:34:34;2.53;;;1.30;;
20711;SDS011;10517;50.742;4.224;2023-03-14T10:37:17;2.57;;;1.80;;
20711;SDS011;10517;50.742;4.224;2023-03-14T10:39:47;2.73;;;1.67;;
20711;SDS011;10517;50.742;4.224;2023-03-14T10:44:57;8.10;;;2.83;;
20711;SDS011;10517;50.742;4.224;2023-03-14T10:47:26;2.70;;;2.23;;
20711;SDS011;10517;50.742;4.224;2023-03-14T10:49:53;6.47;;;1.90;;
20711;SDS011;10517;50.742;4.224;2023-03-14T10:54:54;6.17;;;1.43;;
20711;SDS011;10517;50.742;4.224;2023-03-14T10:57:19;2.50;;;1.33;;
20711;SDS011;10517;50.742;4.224;2023-03-14T10:59:46;2.20;;;1.27;;
20711;SDS011;10517;50.742;4.224;2023-03-14T11:02:20;4.53;;;0.87;;
20711;SDS011;10517;50.742;4.224;2023-03-14T11:05:03;7.17;;;1.57;;
20711;SDS011;10517;50.742;4.224;2023-03-14T11:07:51;3.13;;;1.47;;
20711;SDS011;10517;50.742;4.224;2023-03-14T11:10:32;2.73;;;1.27;;
20711;SDS011;10517;50.742;4.224;2023-03-14T11:16:27;7.00;;;2.10;;
20711;SDS011;10517;50.742;4.224;2023-03-14T11:22:05;2.07;;;1.00;;
20711;SDS011;10517;50.742;4.224;2023-03-14T11:27:18;1.03;;;0.87;;
20711;SDS011;10517;50.742;4.224;2023-03-14T11:29:52;1.03;;;0.80;;
20711;SDS011;10517;50.742;4.224;2023-03-14T11:35:20;2.53;;;1.60;;
20711;SDS011;10517;50.742;4.224;2023-03-14T11:38:03;2.40;;;2.10;;
20711;SDS011;10517;50.742;4.224;2023-03-14T11:40:30;2.03;;;1.80;;
20711;SDS011;10517;50.742;4.224;2023-03-14T11:43:12;6.40;;;2.10;;
20711;SDS011;10517;50.742;4.224;2023-03-14T11:46:04;6.87;;;3.43;;
20711;SDS011;10517;50.742;4.224;2023-03-14T11:49:05;3.37;;;2.73;;
20711;SDS011;10517;50.742;4.224;2023-03-14T11:51:52;2.37;;;2.10;;
20711;SDS011;10517;50.742;4.224;2023-03-14T11:57:09;2.50;;;1.60;;
20711;SDS011;10517;50.742;4.224;2023-03-14T12:10:46;3.17;;;1.80;;
20711;SDS011;10517;50.742;4.224;2023-03-14T12:13:16;1.67;;;1.23;;
20711;SDS011;10517;50.742;4.224;2023-03-14T12:15:56;1.50;;;1.00;;
20711;SDS011;10517;50.742;4.224;2023-03-14T12:18:31;5.93;;;1.60;;
20711;SDS011;10517;50.742;4.224;2023-03-14T12:21:03;4.00;;;1.20;;
20711;SDS011;10517;50.742;4.224;2023-03-14T12:23:34;2.27;;;1.20;;
20711;SDS011;10517;50.742;4.224;2023-03-14T12:28:36;5.80;;;1.53;;
20711;SDS011;10517;50.742;4.224;2023-03-14T12:44:45;4.77;;;1.60;;
20711;SDS011;10517;50.742;4.224;2023-03-14T12:49:50;2.07;;;1.83;;
20711;SDS011;10517;50.742;4.224;2023-03-14T12:52:21;1.93;;;1.77;;
20711;SDS011;10517;50.742;4.224;2023-03-14T12:55:02;1.77;;;1.50;;
20711;SDS011;10517;50.742;4.224;2023-03-14T13:02:45;3.93;;;2.03;;
20711;SDS011;10517;50.742;4.224;2023-03-14T13:05:17;2.27;;;2.07;;
20711;SDS011;10517;50.742;4.224;2023-03-14T13:10:20;4.27;;;1.83;;
20711;SDS011;10517;50.742;4.224;2023-03-14T13:17:56;2.10;;;2.00;;
20711;SDS011;10517;50.742;4.224;2023-03-14T13:23:26;2.00;;;1.40;;
20711;SDS011;10517;50.742;4.224;2023-03-14T13:25:54;1.60;;;1.50;;
20711;SDS011;10517;50.742;4.224;2023-03-14T13:28:20;2.20;;;1.97;;
20711;SDS011;10517;50.742;4.224;2023-03-14T13:30:47;2.67;;;1.47;;
20711;SDS011;10517;50.742;4.224;2023-03-14T13:33:15;1.77;;;1.40;;
20711;SDS011;10517;50.742;4.224;2023-03-14T13:35:47;1.90;;;1.10;;
20711;SDS011;10517;50.742;4.224;2023-03-14T13:38:19;2.23;;;1.67;;
20711;SDS011;10517;50.742;4.224;2023-03-14T13:40:47;1.27;;;1.20;;
20711;SDS011;10517;50.742;4.224;2023-03-14T13:43:19;1.73;;;1.20;;
20711;SDS011;10517;50.742;4.224;2023-03-14T13:48:18;1.57;;;1.47;;
20711;SDS011;10517;50.742;4.224;2023-03-14T13:50:50;1.50;;;1.40;;
20711;SDS011;10517;50.742;4.224;2023-03-14T13:53:17;1.13;;;1.13;;
20711;SDS011;10517;50.742;4.224;2023-03-14T13:55:43;1.30;;;1.20;;
20711;SDS011;10517;50.742;4.224;2023-03-14T13:58:11;1.50;;;1.40;;
20711;SDS011;10517;50.742;4.224;2023-03-14T14:00:52;1.90;;;1.67;;
20711;SDS011;10517;50.742;4.224;2023-03-14T14:03:30;5.13;;;1.10;;
20711;SDS011;10517;50.742;4.224;2023-03-14T14:05:57;1.80;;;1.30;;
20711;SDS011;10517;50.742;4.224;2023-03-14T14:08:24;1.30;;;1.07;;
20711;SDS011;10517;50.742;4.224;2023-03-14T14:10:50;2.87;;;1.20;;
20711;SDS011;10517;50.742;4.224;2023-03-14T14:13:29;6.07;;;1.30;;
20711;SDS011;10517;50.742;4.224;2023-03-14T14:15:58;2.93;;;1.00;;
20711;SDS011;10517;50.742;4.224;2023-03-14T14:18:26;8.80;;;2.03;;
20711;SDS011;10517;50.742;4.224;2023-03-14T14:20:53;7.03;;;1.10;;
20711;SDS011;10517;50.742;4.224;2023-03-14T14:23:20;3.13;;;0.90;;
20711;SDS011;10517;50.742;4.224;2023-03-14T14:25:54;3.87;;;1.23;;
20711;SDS011;10517;50.742;4.224;2023-03-14T14:28:28;5.80;;;1.33;;
20711;SDS011;10517;50.742;4.224;2023-03-14T14:33:30;5.40;;;1.17;;
20711;SDS011;10517;50.742;4.224;2023-03-14T14:36:11;1.00;;;1.00;;
20711;SDS011;10517;50.742;4.224;2023-03-14T14:38:50;1.40;;;1.30;;
20711;SDS011;10517;50.742;4.224;2023-03-14T14:41:23;1.87;;;1.30;;
20711;SDS011;10517;50.742;4.224;2023-03-14T14:43:52;6.07;;;1.70;;
20711;SDS011;10517;50.742;4.224;2023-03-14T14:46:18;5.03;;;1.33;;
20711;SDS011;10517;50.742;4.224;2023-03-14T14:48:45;3.40;;;1.40;;
20711;SDS011;10517;50.742;4.224;2023-03-14T14:51:21;10.63;;;1.40;;
20711;SDS011;10517;50.742;4.224;2023-03-14T14:53:59;6.13;;;1.83;;
20711;SDS011;10517;50.742;4.224;2023-03-14T14:56:35;6.03;;;1.50;;
20711;SDS011;10517;50.742;4.224;2023-03-14T14:59:04;1.27;;;1.23;;
20711;SDS011;10517;50.742;4.224;2023-03-14T15:01:32;1.53;;;1.40;;
20711;SDS011;10517;50.742;4.224;2023-03-14T15:04:00;5.50;;;1.50;;
20711;SDS011;10517;50.742;4.224;2023-03-14T15:06:28;5.93;;;1.23;;
20711;SDS011;10517;50.742;4.224;2023-03-14T15:08:55;5.43;;;1.13;;
20711;SDS011;10517;50.742;4.224;2023-03-14T15:11:23;0.70;;;0.70;;
20711;SDS011;10517;50.742;4.224;2023-03-14T15:13:50;4.40;;;1.67;;
20711;SDS011;10517;50.742;4.224;2023-03-14T15:16:17;5.23;;;1.87;;
20711;SDS011;10517;50.742;4.224;2023-03-14T15:18:51;8.37;;;1.30;;
20711;SDS011;10517;50.742;4.224;2023-03-14T15:21:23;5.10;;;2.87;;
20711;SDS011;10517;50.742;4.224;2023-03-14T15:23:51;4.43;;;2.30;;
20711;SDS011;10517;50.742;4.224;2023-03-14T15:26:17;6.40;;;1.03;;
20711;SDS011;10517;50.742;4.224;2023-03-14T15:28:45;4.83;;;1.03;;
20711;SDS011;10517;50.742;4.224;2023-03-14T15:31:12;1.47;;;1.37;;
20711;SDS011;10517;50.742;4.224;2023-03-14T15:33:40;2.63;;;1.37;;
20711;SDS011;10517;50.742;4.224;2023-03-14T15:36:06;1.83;;;1.27;;
20711;SDS011;10517;50.742;4.224;2023-03-14T15:38:44;1.37;;;1.27;;
20711;SDS011;10517;50.742;4.224;2023-03-14T15:41:09;3.67;;;1.73;;
20711;SDS011;10517;50.742;4.224;2023-03-14T15:43:35;3.43;;;1.60;;
20711;SDS011;10517;50.742;4.224;2023-03-14T15:46:00;4.07;;;1.97;;
20711;SDS011;10517;50.742;4.224;2023-03-14T15:48:26;3.10;;;1.73;;
20711;SDS011;10517;50.742;4.224;2023-03-14T15:50:51;1.70;;;1.60;;
20711;SDS011;10517;50.742;4.224;2023-03-14T15:53:17;3.00;;;1.80;;
20711;SDS011;10517;50.742;4.224;2023-03-14T15:55:42;3.57;;;2.00;;
20711;SDS011;10517;50.742;4.224;2023-03-14T15:58:18;5.77;;;1.80;;
20711;SDS011;10517;50.742;4.224;2023-03-14T16:00:45;1.53;;;1.43;;
20711;SDS011;10517;50.742;4.224;2023-03-14T16:03:10;4.47;;;1.73;;
20711;SDS011;10517;50.742;4.224;2023-03-14T16:05:37;3.73;;;1.57;;
20711;SDS011;10517;50.742;4.224;2023-03-14T16:08:03;5.90;;;1.87;;
20711;SDS011;10517;50.742;4.224;2023-03-14T16:10:29;4.20;;;1.50;;
20711;SDS011;10517;50.742;4.224;2023-03-14T16:12:55;1.60;;;1.50;;
20711;SDS011;10517;50.742;4.224;2023-03-14T16:15:21;3.33;;;1.57;;